createdAt,value
2019-03-09T00:01:39.178Z,11.06
2019-03-09T00:04:08.566Z,11.15
2019-03-09T00:06:38.085Z,11.14
2019-03-09T00:09:08.860Z,11.13
2019-03-09T00:11:38.289Z,11.07
2019-03-09T00:14:07.679Z,10.99
2019-03-09T00:16:37.177Z,10.96
2019-03-09T00:19:06.669Z,11.04
2019-03-09T00:21:36.154Z,11.13
2019-03-09T00:24:30.312Z,11.15
2019-03-09T00:27:14.813Z,11.13
2019-03-09T00:30:09.431Z,11.00
2019-03-09T00:32:38.894Z,10.92
2019-03-09T00:35:08.387Z,10.84
2019-03-09T00:37:37.878Z,10.81
2019-03-09T00:40:08.492Z,10.74
2019-03-09T00:42:38.127Z,10.72
2019-03-09T00:45:08.487Z,10.69
2019-03-09T00:47:37.932Z,10.69
2019-03-09T00:50:07.959Z,10.57
2019-03-09T00:52:37.449Z,10.61
2019-03-09T00:55:08.209Z,10.53
2019-03-09T00:57:37.703Z,10.50
2019-03-09T01:00:09.838Z,10.50
2019-03-09T01:02:39.288Z,10.50
2019-03-09T01:05:09.609Z,10.47
2019-03-09T01:07:39.064Z,10.43
2019-03-09T01:10:11.498Z,10.51
2019-03-09T01:12:41.155Z,10.44
2019-03-09T01:15:10.923Z,10.46
2019-03-09T01:17:40.430Z,10.38
2019-03-09T01:20:12.383Z,10.37
2019-03-09T01:22:41.954Z,10.30
2019-03-09T01:25:11.964Z,10.34
2019-03-09T01:27:41.402Z,10.34
2019-03-09T01:30:14.591Z,10.37
2019-03-09T01:32:44.017Z,10.31
2019-03-09T01:35:13.741Z,10.21
2019-03-09T01:37:43.231Z,10.10
2019-03-09T01:40:13.279Z,10.06
2019-03-09T01:42:42.705Z,9.99
2019-03-09T01:45:12.878Z,9.97
2019-03-09T01:47:42.318Z,9.89
2019-03-09T01:50:12.131Z,9.92
2019-03-09T01:52:41.611Z,9.91
2019-03-09T01:55:11.037Z,9.99
2019-03-09T01:57:40.505Z,9.95
2019-03-09T02:00:10.427Z,9.88
2019-03-09T02:02:39.858Z,9.89
2019-03-09T02:05:10.057Z,9.99
2019-03-09T02:07:39.527Z,10.00
2019-03-09T02:10:09.485Z,9.96
2019-03-09T02:12:38.921Z,9.93
2019-03-09T02:15:08.754Z,9.88
2019-03-09T02:17:38.286Z,9.83
2019-03-09T02:20:07.958Z,9.83
2019-03-09T02:22:37.445Z,9.88
2019-03-09T02:25:07.632Z,9.85
2019-03-09T02:27:37.134Z,9.93
2019-03-09T02:30:07.065Z,10.04
2019-03-09T02:32:36.509Z,10.11
2019-03-09T02:35:07.905Z,10.14
2019-03-09T02:37:37.450Z,10.06
2019-03-09T02:40:17.018Z,10.06
2019-03-09T02:42:46.494Z,9.97
2019-03-09T02:45:17.027Z,9.93
2019-03-09T02:47:46.562Z,9.87
2019-03-09T02:50:16.220Z,9.80
2019-03-09T02:52:45.669Z,9.74
2019-03-09T02:55:15.155Z,9.73
2019-03-09T02:57:44.732Z,9.70
2019-03-09T03:00:16.145Z,9.76
2019-03-09T03:02:49.321Z,9.98
2019-03-09T03:05:18.697Z,9.92
2019-03-09T03:07:48.148Z,9.99
2019-03-09T03:10:18.090Z,9.99
2019-03-09T03:12:47.595Z,10.02
2019-03-09T03:15:35.312Z,10.11
2019-03-09T03:18:04.866Z,10.03
2019-03-09T03:20:34.363Z,9.99
2019-03-09T03:23:03.923Z,10.00
2019-03-09T03:25:33.307Z,9.92
2019-03-09T03:28:02.852Z,9.92
2019-03-09T03:30:32.422Z,9.95
2019-03-09T03:33:01.964Z,9.88
2019-03-09T03:35:31.365Z,9.87
2019-03-09T03:38:00.854Z,9.75
2019-03-09T03:40:30.355Z,9.63
2019-03-09T03:42:59.814Z,9.85
2019-03-09T03:45:29.239Z,9.80
2019-03-09T03:47:58.690Z,9.77
2019-03-09T03:50:28.170Z,9.79
2019-03-09T03:52:57.647Z,9.66
2019-03-09T03:55:27.035Z,9.36
2019-03-09T03:57:56.587Z,9.09
2019-03-09T04:00:26.057Z,9.02
2019-03-09T04:02:55.601Z,9.11
2019-03-09T04:05:25.088Z,9.17
2019-03-09T04:07:54.550Z,9.14
2019-03-09T04:10:23.936Z,9.11
2019-03-09T04:12:53.412Z,9.08
2019-03-09T04:15:23.032Z,9.18
2019-03-09T04:17:52.452Z,9.22
2019-03-09T04:20:21.838Z,9.22
2019-03-09T04:22:51.318Z,9.21
2019-03-09T04:25:20.808Z,9.18
2019-03-09T04:27:50.212Z,9.23
2019-03-09T04:30:19.671Z,9.27
2019-03-09T04:32:49.110Z,9.20
2019-03-09T04:35:18.691Z,9.17
2019-03-09T04:37:48.181Z,9.19
2019-03-09T04:40:17.726Z,9.24
2019-03-09T04:42:47.149Z,9.20
2019-03-09T04:45:16.572Z,9.22
2019-03-09T04:47:46.981Z,9.22
2019-03-09T04:50:16.833Z,9.11
2019-03-09T04:52:46.213Z,9.10
2019-03-09T04:55:15.597Z,9.03
2019-03-09T04:57:45.117Z,9.11
2019-03-09T05:00:15.157Z,9.07
2019-03-09T05:02:45.762Z,9.05
2019-03-09T05:05:15.187Z,9.08
2019-03-09T05:08:18.594Z,9.18
2019-03-09T05:11:04.024Z,9.19
2019-03-09T05:13:56.235Z,9.14
2019-03-09T05:16:25.660Z,9.23
2019-03-09T05:18:55.141Z,9.32
2019-03-09T05:21:24.534Z,9.48
2019-03-09T05:23:54.066Z,9.58
2019-03-09T05:26:23.547Z,9.64
2019-03-09T05:28:52.940Z,9.65
2019-03-09T05:31:22.376Z,9.73
2019-03-09T05:33:51.871Z,9.74
2019-03-09T05:36:21.350Z,9.75
2019-03-09T05:38:51.277Z,9.80
2019-03-09T05:41:20.748Z,9.83
2019-03-09T05:43:50.270Z,9.90
2019-03-09T05:46:19.813Z,9.96
2019-03-09T05:48:49.195Z,9.72
2019-03-09T05:51:18.600Z,9.70
2019-03-09T05:53:48.128Z,9.80
2019-03-09T05:56:17.611Z,9.83
2019-03-09T05:58:47.011Z,10.07
2019-03-09T06:01:16.537Z,10.24
2019-03-09T06:03:45.926Z,10.28
2019-03-09T06:06:18.877Z,10.20
2019-03-09T06:08:49.802Z,9.88
2019-03-09T06:11:19.405Z,9.96
2019-03-09T06:13:48.786Z,10.18
2019-03-09T06:16:18.251Z,10.38
2019-03-09T06:18:47.746Z,10.63
2019-03-09T06:21:17.356Z,10.45
2019-03-09T06:23:46.797Z,10.61
2019-03-09T06:26:16.195Z,10.49
2019-03-09T06:28:45.698Z,10.44
2019-03-09T06:31:15.299Z,10.63
2019-03-09T06:33:46.205Z,10.77
2019-03-09T06:36:52.954Z,10.50
2019-03-09T06:39:24.996Z,10.67
2019-03-09T06:42:24.732Z,11.00
2019-03-09T06:44:54.243Z,11.28
2019-03-09T06:47:23.799Z,11.57
2019-03-09T06:49:53.511Z,11.74
2019-03-09T06:52:22.930Z,11.95
2019-03-09T06:54:52.454Z,12.14
2019-03-09T06:57:21.945Z,12.32
2019-03-09T06:59:51.350Z,12.54
2019-03-09T07:02:20.746Z,12.85
2019-03-09T07:04:50.283Z,13.12
2019-03-09T07:07:19.775Z,13.30
2019-03-09T07:09:49.220Z,13.52
2019-03-09T07:12:20.717Z,13.62
2019-03-09T07:15:22.377Z,13.78
2019-03-09T07:17:57.335Z,13.93
2019-03-09T07:20:26.704Z,14.12
2019-03-09T07:22:56.203Z,14.30
2019-03-09T07:25:25.630Z,14.41
2019-03-09T07:28:08.972Z,14.61
2019-03-09T07:30:38.679Z,14.86
2019-03-09T07:33:08.288Z,15.08
2019-03-09T07:35:37.775Z,15.40
2019-03-09T07:38:07.314Z,15.63
2019-03-09T07:40:37.025Z,15.95
2019-03-09T07:43:06.533Z,16.17
2019-03-09T07:45:35.983Z,16.32
2019-03-09T07:48:05.507Z,16.52
2019-03-09T07:50:35.107Z,16.65
2019-03-09T07:53:04.875Z,16.80
2019-03-09T07:55:34.272Z,17.06
2019-03-09T07:58:05.530Z,17.27
2019-03-09T08:00:35.195Z,17.53
2019-03-09T08:03:05.391Z,17.79
2019-03-09T08:05:34.885Z,18.13
2019-03-09T08:08:04.508Z,18.39
2019-03-09T08:10:33.945Z,18.69
2019-03-09T08:13:03.370Z,18.93
2019-03-09T08:15:32.917Z,19.13
2019-03-09T08:18:02.389Z,19.19
2019-03-09T08:20:31.843Z,19.34
2019-03-09T08:23:01.336Z,19.58
2019-03-09T08:25:30.853Z,19.73
2019-03-09T08:28:01.198Z,19.83
2019-03-09T08:30:30.632Z,19.91
2019-03-09T08:33:00.000Z,19.94
2019-03-09T08:35:29.513Z,19.91
2019-03-09T08:37:59.029Z,19.93
2019-03-09T08:40:28.426Z,20.04
2019-03-09T08:42:57.930Z,20.16
2019-03-09T08:45:27.420Z,20.11
2019-03-09T08:47:56.954Z,20.18
2019-03-09T08:50:26.321Z,20.32
2019-03-09T08:52:55.764Z,20.38
2019-03-09T08:55:25.270Z,20.38
2019-03-09T08:57:54.848Z,20.52
2019-03-09T09:00:30.418Z,20.57
2019-03-09T09:03:00.232Z,20.55
2019-03-09T09:05:29.700Z,20.68
2019-03-09T09:07:59.264Z,20.72
2019-03-09T09:10:28.740Z,20.71
2019-03-09T09:12:58.528Z,20.82
2019-03-09T09:15:28.207Z,21.00
2019-03-09T09:17:57.849Z,20.93
2019-03-09T09:20:27.311Z,20.93
2019-03-09T09:22:56.909Z,20.92
2019-03-09T09:25:26.359Z,20.86
2019-03-09T09:27:56.303Z,20.89
2019-03-09T09:30:27.251Z,20.93
2019-03-09T09:32:56.844Z,21.03
2019-03-09T09:35:26.416Z,21.05
2019-03-09T09:37:55.862Z,21.15
2019-03-09T09:40:25.464Z,21.31
2019-03-09T09:42:55.229Z,21.36
2019-03-09T09:45:24.949Z,21.41
2019-03-09T09:47:54.453Z,21.51
2019-03-09T09:50:23.933Z,21.61
2019-03-09T09:52:53.445Z,21.79
2019-03-09T09:55:22.845Z,21.90
2019-03-09T09:57:52.224Z,21.95
2019-03-09T10:00:23.668Z,22.04
2019-03-09T10:02:53.053Z,22.09
2019-03-09T10:05:22.926Z,22.17
2019-03-09T10:07:52.695Z,22.14
2019-03-09T10:10:22.075Z,22.18
2019-03-09T10:12:51.834Z,22.15
2019-03-09T10:15:23.381Z,22.28
2019-03-09T10:17:53.048Z,22.15
2019-03-09T10:20:22.563Z,22.21
2019-03-09T10:22:52.051Z,22.29
2019-03-09T10:25:21.615Z,22.29
2019-03-09T10:27:51.160Z,22.31
2019-03-09T10:30:21.695Z,22.29
2019-03-09T10:32:51.306Z,22.33
2019-03-09T10:35:21.064Z,22.35
2019-03-09T10:37:50.685Z,22.41
2019-03-09T10:40:20.483Z,22.50
2019-03-09T10:42:49.957Z,22.59
2019-03-09T10:45:19.522Z,22.71
2019-03-09T10:47:48.915Z,22.66
2019-03-09T10:50:18.561Z,22.75
2019-03-09T10:52:48.170Z,22.79
2019-03-09T10:55:19.265Z,22.81
2019-03-09T10:57:48.782Z,22.80
2019-03-09T11:00:26.943Z,22.80
2019-03-09T11:02:56.410Z,22.79
2019-03-09T11:05:25.898Z,22.84
2019-03-09T11:07:57.844Z,22.87
2019-03-09T11:10:27.806Z,22.86
2019-03-09T11:12:57.314Z,22.90
2019-03-09T11:15:27.062Z,22.89
2019-03-09T11:17:56.444Z,22.96
2019-03-09T11:20:25.920Z,23.06
2019-03-09T11:22:55.339Z,23.02
2019-03-09T11:25:24.802Z,23.08
2019-03-09T11:27:54.350Z,23.14
2019-03-09T11:30:25.881Z,23.24
2019-03-09T11:32:55.254Z,23.08
2019-03-09T11:35:24.706Z,23.20
2019-03-09T11:37:54.231Z,23.32
2019-03-09T11:40:23.612Z,23.30
2019-03-09T11:42:52.978Z,23.20
2019-03-09T11:45:22.596Z,23.12
2019-03-09T11:47:52.089Z,23.19
2019-03-09T11:50:21.464Z,23.28
2019-03-09T11:52:50.865Z,23.20
2019-03-09T11:55:20.458Z,23.23
2019-03-09T11:57:49.933Z,23.29
2019-03-09T12:00:23.861Z,23.41
2019-03-09T12:02:53.331Z,23.40
2019-03-09T12:05:22.710Z,23.44
2019-03-09T12:07:52.131Z,23.48
2019-03-09T12:10:21.679Z,23.48
2019-03-09T12:12:51.146Z,23.53
2019-03-09T12:15:20.569Z,23.53
2019-03-09T12:17:50.774Z,23.54
2019-03-09T12:20:22.030Z,23.57
2019-03-09T12:22:51.517Z,23.65
2019-03-09T12:25:20.894Z,23.64
2019-03-09T12:27:50.270Z,23.61
2019-03-09T12:30:19.877Z,23.72
2019-03-09T12:32:50.695Z,23.82
2019-03-09T12:35:20.075Z,23.82
2019-03-09T12:37:49.485Z,23.74
2019-03-09T12:40:19.076Z,23.69
2019-03-09T12:42:48.630Z,23.72
2019-03-09T12:45:18.259Z,23.74
2019-03-09T12:47:47.737Z,23.76
2019-03-09T12:50:18.018Z,23.74
2019-03-09T12:52:47.414Z,23.76
2019-03-09T12:55:16.904Z,23.82
2019-03-09T12:57:46.511Z,23.95
2019-03-09T13:00:17.540Z,23.98
2019-03-09T13:02:46.951Z,24.07
2019-03-09T13:05:18.629Z,23.86
2019-03-09T13:07:48.142Z,23.96
2019-03-09T13:10:17.929Z,23.95
2019-03-09T13:12:47.427Z,24.03
2019-03-09T13:15:17.132Z,24.01
2019-03-09T13:17:46.614Z,24.04
2019-03-09T13:20:16.147Z,24.04
2019-03-09T13:22:45.743Z,24.13
2019-03-09T13:25:15.413Z,24.20
2019-03-09T13:27:44.774Z,23.75
2019-03-09T13:30:16.558Z,23.85
2019-03-09T13:32:46.024Z,23.83
2019-03-09T13:35:15.401Z,23.81
2019-03-09T13:37:44.920Z,23.83
2019-03-09T13:40:14.979Z,23.81
2019-03-09T13:42:44.747Z,23.71
2019-03-09T13:45:14.693Z,23.73
2019-03-09T13:47:44.087Z,23.75
2019-03-09T13:50:13.715Z,23.80
2019-03-09T13:52:43.366Z,23.87
2019-03-09T13:55:12.940Z,24.04
2019-03-09T13:57:42.448Z,24.09
2019-03-09T14:00:13.221Z,24.13
2019-03-09T14:02:42.720Z,24.01
2019-03-09T14:05:12.217Z,24.11
2019-03-09T14:07:41.820Z,24.13
2019-03-09T14:10:11.959Z,24.23
2019-03-09T14:12:41.560Z,24.24
2019-03-09T14:15:12.783Z,24.29
2019-03-09T14:17:42.338Z,24.32
2019-03-09T14:20:12.225Z,24.26
2019-03-09T14:22:41.887Z,24.30
2019-03-09T14:25:11.723Z,24.31
2019-03-09T14:27:41.124Z,24.20
2019-03-09T14:30:12.989Z,24.21
2019-03-09T14:32:42.463Z,24.15
2019-03-09T14:35:11.876Z,24.11
2019-03-09T14:37:41.301Z,24.03
2019-03-09T14:40:11.870Z,23.89
2019-03-09T14:42:41.284Z,23.79
2019-03-09T14:45:14.115Z,23.75
2019-03-09T14:47:43.624Z,23.70
2019-03-09T14:50:13.250Z,23.65
2019-03-09T14:52:42.717Z,23.66
2019-03-09T14:55:12.459Z,23.69
2019-03-09T14:57:41.977Z,23.69
2019-03-09T15:00:14.803Z,23.70
2019-03-09T15:02:44.213Z,23.68
2019-03-09T15:05:14.005Z,23.64
2019-03-09T15:07:43.550Z,23.57
2019-03-09T15:10:13.053Z,23.49
2019-03-09T15:12:42.427Z,23.38
2019-03-09T15:15:12.908Z,23.30
2019-03-09T15:17:42.376Z,23.22
2019-03-09T15:20:11.894Z,23.14
2019-03-09T15:22:41.436Z,23.07
2019-03-09T15:25:11.540Z,22.98
2019-03-09T15:27:40.934Z,22.90
2019-03-09T15:30:12.417Z,22.69
2019-03-09T15:32:41.897Z,22.59
2019-03-09T15:35:11.483Z,22.48
2019-03-09T15:37:40.911Z,22.40
2019-03-09T15:40:10.973Z,22.37
2019-03-09T15:42:40.562Z,22.36
2019-03-09T15:45:11.175Z,22.34
2019-03-09T15:47:40.613Z,22.32
2019-03-09T15:50:11.251Z,22.27
2019-03-09T15:52:40.878Z,22.34
2019-03-09T15:55:10.415Z,22.34
2019-03-09T15:57:39.819Z,22.20
2019-03-09T16:00:12.990Z,22.18
2019-03-09T16:02:42.375Z,22.06
2019-03-09T16:05:11.967Z,21.80
2019-03-09T16:07:41.598Z,21.73
2019-03-09T16:10:12.374Z,21.58
2019-03-09T16:12:41.748Z,21.48
2019-03-09T16:15:12.467Z,21.48
2019-03-09T16:17:42.006Z,21.34
2019-03-09T16:20:13.478Z,21.26
2019-03-09T16:22:43.005Z,21.14
2019-03-09T16:25:12.723Z,20.97
2019-03-09T16:27:42.448Z,20.85
2019-03-09T16:30:14.942Z,20.71
2019-03-09T16:32:44.344Z,20.54
2019-03-09T16:35:13.831Z,20.33
2019-03-09T16:37:43.352Z,20.21
2019-03-09T16:40:13.317Z,20.12
2019-03-09T16:42:42.949Z,19.94
2019-03-09T16:45:12.591Z,19.83
2019-03-09T16:47:42.162Z,19.64
2019-03-09T16:50:12.481Z,19.55
2019-03-09T16:52:42.019Z,19.40
2019-03-09T16:55:11.640Z,19.26
2019-03-09T16:57:41.045Z,19.16
2019-03-09T17:00:14.126Z,19.06
2019-03-09T17:02:43.601Z,18.95
2019-03-09T17:05:13.801Z,18.89
2019-03-09T17:07:43.301Z,18.83
2019-03-09T17:10:13.945Z,18.76
2019-03-09T17:12:43.453Z,18.83
2019-03-09T17:15:13.903Z,18.74
2019-03-09T17:17:43.508Z,18.67
2019-03-09T17:20:13.386Z,18.50
2019-03-09T17:22:42.846Z,18.44
2019-03-09T17:25:12.532Z,18.38
2019-03-09T17:27:42.043Z,18.38
2019-03-09T17:30:13.933Z,18.38
2019-03-09T17:32:43.332Z,18.21
2019-03-09T17:35:13.627Z,18.25
2019-03-09T17:37:43.273Z,18.21
2019-03-09T17:40:12.830Z,18.16
2019-03-09T17:42:42.364Z,18.08
2019-03-09T17:45:14.769Z,18.11
2019-03-09T17:47:46.563Z,18.00
2019-03-09T17:50:15.972Z,18.00
2019-03-09T17:52:45.538Z,17.92
2019-03-09T17:55:15.205Z,17.91
2019-03-09T17:57:44.707Z,17.83
2019-03-09T18:00:19.681Z,17.72
2019-03-09T18:02:49.586Z,17.65
2019-03-09T18:05:19.939Z,17.56
2019-03-09T18:07:50.171Z,17.53
2019-03-09T18:10:29.705Z,17.56
2019-03-09T18:12:59.386Z,17.45
2019-03-09T18:15:28.868Z,17.33
2019-03-09T18:17:58.368Z,17.21
2019-03-09T18:20:27.933Z,17.18
2019-03-09T18:22:57.592Z,17.16
2019-03-09T18:25:27.159Z,17.20
2019-03-09T18:27:56.583Z,17.16
2019-03-09T18:30:26.078Z,17.06
2019-03-09T18:32:55.557Z,17.02
2019-03-09T18:35:25.005Z,16.92
2019-03-09T18:37:55.509Z,17.00
2019-03-09T18:40:25.012Z,16.97
2019-03-09T18:42:54.440Z,16.90
2019-03-09T18:45:23.924Z,16.82
2019-03-09T18:47:53.454Z,16.78
2019-03-09T18:50:23.019Z,16.91
2019-03-09T18:52:52.451Z,16.88
2019-03-09T18:55:21.936Z,16.79
2019-03-09T18:57:51.533Z,16.67
2019-03-09T19:00:21.170Z,16.65
2019-03-09T19:02:50.813Z,16.64
2019-03-09T19:05:20.352Z,16.67
2019-03-09T19:07:49.838Z,16.73
2019-03-09T19:10:19.242Z,16.70
2019-03-09T19:12:48.697Z,16.72
2019-03-09T19:15:18.941Z,16.78
2019-03-09T19:17:48.667Z,16.71
2019-03-09T19:20:18.092Z,16.66
2019-03-09T19:22:49.254Z,16.64
2019-03-09T19:25:21.484Z,16.45
2019-03-09T19:27:50.953Z,16.34
2019-03-09T19:30:20.364Z,16.29
2019-03-09T19:32:59.533Z,16.28
2019-03-09T19:35:21.133Z,16.23
2019-03-09T19:37:50.654Z,16.23
2019-03-09T19:40:20.130Z,16.21
2019-03-09T19:42:49.648Z,16.20
2019-03-09T19:45:19.833Z,16.14
2019-03-09T19:47:50.205Z,16.08
2019-03-09T19:50:20.043Z,16.05
2019-03-09T19:52:49.856Z,16.10
2019-03-09T19:55:19.494Z,16.13
2019-03-09T19:57:49.560Z,16.06
2019-03-09T20:00:19.101Z,15.99
2019-03-09T20:02:48.656Z,15.99
2019-03-09T20:05:18.611Z,16.00
2019-03-09T20:07:48.263Z,16.02
2019-03-09T20:10:17.793Z,16.06
2019-03-09T20:12:47.321Z,16.08
2019-03-09T20:15:17.676Z,16.03
2019-03-09T20:17:47.170Z,16.03
2019-03-09T20:20:16.681Z,15.98
2019-03-09T20:22:46.177Z,15.97
2019-03-09T20:25:15.652Z,15.90
2019-03-09T20:27:45.096Z,15.85
2019-03-09T20:30:16.526Z,15.79
2019-03-09T20:32:46.090Z,15.77
2019-03-09T20:35:15.498Z,15.74
2019-03-09T20:37:45.030Z,15.73
2019-03-09T20:40:14.808Z,15.74
2019-03-09T20:42:44.229Z,15.67
2019-03-09T20:45:14.906Z,15.57
2019-03-09T20:47:44.491Z,15.46
2019-03-09T20:50:14.876Z,15.38
2019-03-09T20:52:44.414Z,15.35
2019-03-09T20:55:15.149Z,15.20
2019-03-09T20:57:44.639Z,15.17
2019-03-09T21:00:17.675Z,15.03
2019-03-09T21:02:47.128Z,15.00
2019-03-09T21:05:16.835Z,14.89
2019-03-09T21:07:46.300Z,14.81
2019-03-09T21:10:16.440Z,14.70
2019-03-09T21:12:56.800Z,14.67
2019-03-09T21:15:26.323Z,14.67
2019-03-09T21:17:55.929Z,14.69
2019-03-09T21:20:25.568Z,14.71
2019-03-09T21:22:55.118Z,14.66
2019-03-09T21:25:24.510Z,14.65
2019-03-09T21:27:53.908Z,14.57
2019-03-09T21:30:23.440Z,14.58
2019-03-09T21:32:52.935Z,14.58
2019-03-09T21:35:22.343Z,14.56
2019-03-09T21:37:51.788Z,14.56
2019-03-09T21:40:21.370Z,14.60
2019-03-09T21:42:50.873Z,14.64
2019-03-09T21:45:20.309Z,14.64
2019-03-09T21:47:49.716Z,14.65
2019-03-09T21:50:19.233Z,14.64
2019-03-09T21:52:48.777Z,14.67
2019-03-09T21:55:18.196Z,14.71
2019-03-09T21:57:47.591Z,14.66
2019-03-09T22:00:17.163Z,14.68
2019-03-09T22:02:46.661Z,14.69
2019-03-09T22:05:16.041Z,14.79
2019-03-09T22:07:45.485Z,14.84
2019-03-09T22:10:15.243Z,14.90
2019-03-09T22:12:44.799Z,14.97
2019-03-09T22:15:14.209Z,14.96
2019-03-09T22:17:43.611Z,14.98
2019-03-09T22:20:13.289Z,14.95
2019-03-09T22:22:44.057Z,14.88
2019-03-09T22:25:13.896Z,14.82
2019-03-09T22:27:43.306Z,14.78
2019-03-09T22:30:13.543Z,14.76
2019-03-09T22:32:43.034Z,14.76
2019-03-09T22:35:12.840Z,14.81
2019-03-09T22:37:42.263Z,14.76
2019-03-09T22:40:12.127Z,14.75
2019-03-09T22:42:41.503Z,14.74
2019-03-09T22:45:11.701Z,14.74
2019-03-09T22:47:41.199Z,14.67
2019-03-09T22:50:12.116Z,14.61
2019-03-09T22:52:41.563Z,14.48
2019-03-09T22:55:11.600Z,14.33
2019-03-09T22:57:41.088Z,14.37
2019-03-09T23:00:14.156Z,14.32
2019-03-09T23:02:44.987Z,14.27
2019-03-09T23:05:15.342Z,14.15
2019-03-09T23:07:44.891Z,14.15
2019-03-09T23:10:15.543Z,14.16
2019-03-09T23:12:44.944Z,14.08
2019-03-09T23:15:15.446Z,14.01
2019-03-09T23:17:45.060Z,13.95
2019-03-09T23:20:14.733Z,13.89
2019-03-09T23:22:44.470Z,13.93
2019-03-09T23:25:14.779Z,13.95
2019-03-09T23:27:44.194Z,13.97
2019-03-09T23:30:16.174Z,14.03
2019-03-09T23:32:45.992Z,14.21
2019-03-09T23:35:15.954Z,14.22
2019-03-09T23:37:46.386Z,14.32
2019-03-09T23:40:16.621Z,14.13
2019-03-09T23:42:46.100Z,14.13
2019-03-09T23:45:16.527Z,14.15
2019-03-09T23:47:46.047Z,14.14
2019-03-09T23:50:16.449Z,14.13
2019-03-09T23:52:46.183Z,14.16
2019-03-09T23:55:21.991Z,14.06
2019-03-09T23:57:47.573Z,14.06
